sensor_id;sensor_type;location;lat;lon;timestamp;P1;durP1;ratioP1;P2;durP2;ratioP2
18947;SDS011;9607;51.600;7.558;2022-10-16T00:00:46;1.55;;;1.45;;
18947;SDS011;9607;51.600;7.558;2022-10-16T00:03:14;1.92;;;1.13;;
18947;SDS011;9607;51.600;7.558;2022-10-16T00:05:42;0.90;;;0.85;;
18947;SDS011;9607;51.600;7.558;2022-10-16T00:08:11;1.20;;;1.10;;
18947;SDS011;9607;51.600;7.558;2022-10-16T00:10:39;1.23;;;1.13;;
18947;SDS011;9607;51.600;7.558;2022-10-16T00:13:06;1.52;;;1.42;;
18947;SDS011;9607;51.600;7.558;2022-10-16T00:15:34;1.52;;;1.30;;
18947;SDS011;9607;51.600;7.558;2022-10-16T00:18:02;1.55;;;1.20;;
18947;SDS011;9607;51.600;7.558;2022-10-16T00:20:29;0.80;;;0.80;;
18947;SDS011;9607;51.600;7.558;2022-10-16T00:22:58;1.00;;;0.80;;
18947;SDS011;9607;51.600;7.558;2022-10-16T00:25:26;0.88;;;0.88;;
18947;SDS011;9607;51.600;7.558;2022-10-16T00:27:53;0.82;;;0.82;;
18947;SDS011;9607;51.600;7.558;2022-10-16T00:30:20;2.03;;;1.00;;
18947;SDS011;9607;51.600;7.558;2022-10-16T00:32:48;0.80;;;0.80;;
18947;SDS011;9607;51.600;7.558;2022-10-16T00:35:15;1.15;;;1.05;;
18947;SDS011;9607;51.600;7.558;2022-10-16T00:37:42;0.85;;;0.85;;
18947;SDS011;9607;51.600;7.558;2022-10-16T00:40:09;0.85;;;0.85;;
18947;SDS011;9607;51.600;7.558;2022-10-16T00:42:38;0.60;;;0.60;;
18947;SDS011;9607;51.600;7.558;2022-10-16T00:45:05;0.57;;;0.57;;
18947;SDS011;9607;51.600;7.558;2022-10-16T00:47:34;0.77;;;0.77;;
18947;SDS011;9607;51.600;7.558;2022-10-16T00:50:06;0.75;;;0.75;;
18947;SDS011;9607;51.600;7.558;2022-10-16T00:52:35;1.00;;;0.90;;
18947;SDS011;9607;51.600;7.558;2022-10-16T00:55:05;0.65;;;0.65;;
18947;SDS011;9607;51.600;7.558;2022-10-16T00:57:34;0.77;;;0.77;;
18947;SDS011;9607;51.600;7.558;2022-10-16T01:00:04;0.50;;;0.50;;
18947;SDS011;9607;51.600;7.558;2022-10-16T01:02:33;1.23;;;0.93;;
18947;SDS011;9607;51.600;7.558;2022-10-16T01:05:00;0.68;;;0.68;;
18947;SDS011;9607;51.600;7.558;2022-10-16T01:07:30;0.75;;;0.65;;
18947;SDS011;9607;51.600;7.558;2022-10-16T01:10:10;1.05;;;0.88;;
18947;SDS011;9607;51.600;7.558;2022-10-16T01:12:46;0.70;;;0.70;;
18947;SDS011;9607;51.600;7.558;2022-10-16T01:15:21;0.60;;;0.60;;
18947;SDS011;9607;51.600;7.558;2022-10-16T01:17:53;0.80;;;0.77;;
18947;SDS011;9607;51.600;7.558;2022-10-16T01:20:27;0.40;;;0.40;;
18947;SDS011;9607;51.600;7.558;2022-10-16T01:23:09;0.70;;;0.70;;
18947;SDS011;9607;51.600;7.558;2022-10-16T01:28:51;0.85;;;0.75;;
18947;SDS011;9607;51.600;7.558;2022-10-16T01:31:25;0.57;;;0.57;;
18947;SDS011;9607;51.600;7.558;2022-10-16T01:33:56;0.60;;;0.60;;
18947;SDS011;9607;51.600;7.558;2022-10-16T01:36:28;0.95;;;0.80;;
18947;SDS011;9607;51.600;7.558;2022-10-16T01:39:01;0.60;;;0.60;;
18947;SDS011;9607;51.600;7.558;2022-10-16T01:41:30;1.33;;;0.82;;
18947;SDS011;9607;51.600;7.558;2022-10-16T01:44:02;3.13;;;1.10;;
18947;SDS011;9607;51.600;7.558;2022-10-16T01:46:33;0.88;;;0.88;;
18947;SDS011;9607;51.600;7.558;2022-10-16T01:49:02;0.75;;;0.75;;
18947;SDS011;9607;51.600;7.558;2022-10-16T01:51:29;0.77;;;0.77;;
18947;SDS011;9607;51.600;7.558;2022-10-16T01:53:57;0.65;;;0.65;;
18947;SDS011;9607;51.600;7.558;2022-10-16T01:56:27;0.63;;;0.63;;
18947;SDS011;9607;51.600;7.558;2022-10-16T01:58:56;0.80;;;0.80;;
18947;SDS011;9607;51.600;7.558;2022-10-16T02:01:29;0.70;;;0.70;;
18947;SDS011;9607;51.600;7.558;2022-10-16T02:04:00;0.80;;;0.80;;
18947;SDS011;9607;51.600;7.558;2022-10-16T02:06:30;0.80;;;0.80;;
18947;SDS011;9607;51.600;7.558;2022-10-16T02:08:59;0.73;;;0.70;;
18947;SDS011;9607;51.600;7.558;2022-10-16T02:11:26;0.70;;;0.70;;
18947;SDS011;9607;51.600;7.558;2022-10-16T02:13:54;0.73;;;0.73;;
18947;SDS011;9607;51.600;7.558;2022-10-16T02:16:32;0.93;;;0.70;;
18947;SDS011;9607;51.600;7.558;2022-10-16T02:19:01;0.70;;;0.70;;
18947;SDS011;9607;51.600;7.558;2022-10-16T02:21:29;0.68;;;0.68;;
18947;SDS011;9607;51.600;7.558;2022-10-16T02:24:02;0.95;;;0.85;;
18947;SDS011;9607;51.600;7.558;2022-10-16T02:26:35;1.08;;;1.02;;
18947;SDS011;9607;51.600;7.558;2022-10-16T02:29:08;1.00;;;0.90;;
18947;SDS011;9607;51.600;7.558;2022-10-16T02:31:41;1.40;;;1.05;;
18947;SDS011;9607;51.600;7.558;2022-10-16T02:34:12;2.88;;;1.55;;
18947;SDS011;9607;51.600;7.558;2022-10-16T02:36:40;1.63;;;1.52;;
18947;SDS011;9607;51.600;7.558;2022-10-16T02:39:09;5.40;;;3.05;;
18947;SDS011;9607;51.600;7.558;2022-10-16T02:41:36;1.75;;;1.65;;
18947;SDS011;9607;51.600;7.558;2022-10-16T02:44:04;2.25;;;2.05;;
18947;SDS011;9607;51.600;7.558;2022-10-16T02:46:31;2.42;;;2.08;;
18947;SDS011;9607;51.600;7.558;2022-10-16T02:48:59;1.75;;;1.65;;
18947;SDS011;9607;51.600;7.558;2022-10-16T02:51:26;1.50;;;1.20;;
18947;SDS011;9607;51.600;7.558;2022-10-16T02:53:53;1.80;;;1.50;;
18947;SDS011;9607;51.600;7.558;2022-10-16T02:56:20;1.75;;;1.63;;
18947;SDS011;9607;51.600;7.558;2022-10-16T02:58:47;1.33;;;1.23;;
18947;SDS011;9607;51.600;7.558;2022-10-16T03:01:14;1.52;;;1.42;;
18947;SDS011;9607;51.600;7.558;2022-10-16T03:03:41;1.98;;;1.65;;
18947;SDS011;9607;51.600;7.558;2022-10-16T03:06:10;1.60;;;1.50;;
18947;SDS011;9607;51.600;7.558;2022-10-16T03:08:37;1.50;;;1.40;;
18947;SDS011;9607;51.600;7.558;2022-10-16T03:11:04;1.40;;;1.30;;
18947;SDS011;9607;51.600;7.558;2022-10-16T03:13:31;2.05;;;1.40;;
18947;SDS011;9607;51.600;7.558;2022-10-16T03:15:58;1.50;;;1.40;;
18947;SDS011;9607;51.600;7.558;2022-10-16T03:18:24;1.33;;;1.23;;
18947;SDS011;9607;51.600;7.558;2022-10-16T03:20:51;1.55;;;1.40;;
18947;SDS011;9607;51.600;7.558;2022-10-16T03:23:20;1.10;;;1.10;;
18947;SDS011;9607;51.600;7.558;2022-10-16T03:25:46;1.27;;;1.17;;
18947;SDS011;9607;51.600;7.558;2022-10-16T03:28:13;1.40;;;1.30;;
18947;SDS011;9607;51.600;7.558;2022-10-16T03:30:40;1.10;;;1.10;;
18947;SDS011;9607;51.600;7.558;2022-10-16T03:33:08;0.90;;;0.90;;
18947;SDS011;9607;51.600;7.558;2022-10-16T03:35:35;0.80;;;0.80;;
18947;SDS011;9607;51.600;7.558;2022-10-16T03:38:02;0.70;;;0.70;;
18947;SDS011;9607;51.600;7.558;2022-10-16T03:40:30;0.70;;;0.70;;
18947;SDS011;9607;51.600;7.558;2022-10-16T03:42:57;0.85;;;0.85;;
18947;SDS011;9607;51.600;7.558;2022-10-16T03:45:24;0.70;;;0.70;;
18947;SDS011;9607;51.600;7.558;2022-10-16T03:47:52;0.85;;;0.85;;
18947;SDS011;9607;51.600;7.558;2022-10-16T03:50:18;0.80;;;0.80;;
18947;SDS011;9607;51.600;7.558;2022-10-16T03:52:45;0.70;;;0.70;;
18947;SDS011;9607;51.600;7.558;2022-10-16T03:55:12;0.80;;;0.80;;
18947;SDS011;9607;51.600;7.558;2022-10-16T03:57:41;0.80;;;0.80;;
18947;SDS011;9607;51.600;7.558;2022-10-16T04:00:08;0.70;;;0.70;;
18947;SDS011;9607;51.600;7.558;2022-10-16T04:02:36;0.60;;;0.60;;
18947;SDS011;9607;51.600;7.558;2022-10-16T04:05:03;0.70;;;0.68;;
18947;SDS011;9607;51.600;7.558;2022-10-16T04:07:31;0.95;;;0.60;;
18947;SDS011;9607;51.600;7.558;2022-10-16T04:09:58;0.70;;;0.70;;
18947;SDS011;9607;51.600;7.558;2022-10-16T04:12:25;0.68;;;0.68;;
18947;SDS011;9607;51.600;7.558;2022-10-16T04:14:53;0.68;;;0.68;;
18947;SDS011;9607;51.600;7.558;2022-10-16T04:17:20;0.70;;;0.70;;
18947;SDS011;9607;51.600;7.558;2022-10-16T04:19:47;0.63;;;0.55;;
18947;SDS011;9607;51.600;7.558;2022-10-16T04:22:15;0.80;;;0.80;;
18947;SDS011;9607;51.600;7.558;2022-10-16T04:24:42;0.80;;;0.80;;
18947;SDS011;9607;51.600;7.558;2022-10-16T04:27:08;0.80;;;0.80;;
18947;SDS011;9607;51.600;7.558;2022-10-16T04:29:35;1.20;;;1.10;;
18947;SDS011;9607;51.600;7.558;2022-10-16T04:32:04;1.30;;;1.20;;
18947;SDS011;9607;51.600;7.558;2022-10-16T04:34:30;0.80;;;0.80;;
18947;SDS011;9607;51.600;7.558;2022-10-16T04:36:57;1.27;;;1.17;;
18947;SDS011;9607;51.600;7.558;2022-10-16T04:39:24;1.48;;;1.38;;
18947;SDS011;9607;51.600;7.558;2022-10-16T04:41:51;1.42;;;1.30;;
18947;SDS011;9607;51.600;7.558;2022-10-16T04:44:18;1.35;;;1.25;;
18947;SDS011;9607;51.600;7.558;2022-10-16T04:46:45;0.90;;;0.90;;
18947;SDS011;9607;51.600;7.558;2022-10-16T04:49:13;0.85;;;0.85;;
18947;SDS011;9607;51.600;7.558;2022-10-16T04:51:40;1.10;;;1.10;;
18947;SDS011;9607;51.600;7.558;2022-10-16T04:54:07;1.00;;;1.00;;
18947;SDS011;9607;51.600;7.558;2022-10-16T04:56:35;0.82;;;0.82;;
18947;SDS011;9607;51.600;7.558;2022-10-16T04:59:08;1.10;;;1.08;;
18947;SDS011;9607;51.600;7.558;2022-10-16T05:01:35;1.25;;;1.15;;
18947;SDS011;9607;51.600;7.558;2022-10-16T05:04:02;1.10;;;1.10;;
18947;SDS011;9607;51.600;7.558;2022-10-16T05:06:30;1.58;;;1.48;;
18947;SDS011;9607;51.600;7.558;2022-10-16T05:08:57;1.40;;;1.30;;
18947;SDS011;9607;51.600;7.558;2022-10-16T05:11:24;1.50;;;1.40;;
18947;SDS011;9607;51.600;7.558;2022-10-16T05:13:51;1.52;;;1.30;;
18947;SDS011;9607;51.600;7.558;2022-10-16T05:16:18;1.48;;;1.30;;
18947;SDS011;9607;51.600;7.558;2022-10-16T05:18:45;1.52;;;1.42;;
18947;SDS011;9607;51.600;7.558;2022-10-16T05:21:12;2.20;;;1.30;;
18947;SDS011;9607;51.600;7.558;2022-10-16T05:23:40;1.48;;;1.38;;
18947;SDS011;9607;51.600;7.558;2022-10-16T05:26:07;1.60;;;1.50;;
18947;SDS011;9607;51.600;7.558;2022-10-16T05:28:34;1.55;;;1.45;;
18947;SDS011;9607;51.600;7.558;2022-10-16T05:31:03;3.67;;;1.20;;
18947;SDS011;9607;51.600;7.558;2022-10-16T05:33:31;2.15;;;1.77;;
18947;SDS011;9607;51.600;7.558;2022-10-16T05:36:00;1.50;;;1.40;;
18947;SDS011;9607;51.600;7.558;2022-10-16T05:38:28;1.30;;;1.20;;
18947;SDS011;9607;51.600;7.558;2022-10-16T05:40:56;1.30;;;1.20;;
18947;SDS011;9607;51.600;7.558;2022-10-16T05:43:23;1.20;;;1.10;;
18947;SDS011;9607;51.600;7.558;2022-10-16T05:45:53;1.52;;;1.30;;
18947;SDS011;9607;51.600;7.558;2022-10-16T05:48:21;1.00;;;1.00;;
18947;SDS011;9607;51.600;7.558;2022-10-16T05:50:48;1.33;;;1.20;;
18947;SDS011;9607;51.600;7.558;2022-10-16T05:53:22;1.58;;;1.30;;
18947;SDS011;9607;51.600;7.558;2022-10-16T05:55:53;1.60;;;1.40;;
18947;SDS011;9607;51.600;7.558;2022-10-16T05:58:22;1.95;;;1.75;;
18947;SDS011;9607;51.600;7.558;2022-10-16T06:00:53;2.10;;;1.90;;
18947;SDS011;9607;51.600;7.558;2022-10-16T06:03:21;1.92;;;1.73;;
18947;SDS011;9607;51.600;7.558;2022-10-16T06:05:48;1.42;;;1.33;;
18947;SDS011;9607;51.600;7.558;2022-10-16T06:08:15;1.70;;;1.60;;
18947;SDS011;9607;51.600;7.558;2022-10-16T06:10:42;2.28;;;2.03;;
18947;SDS011;9607;51.600;7.558;2022-10-16T06:13:09;1.75;;;1.65;;
18947;SDS011;9607;51.600;7.558;2022-10-16T06:15:38;2.55;;;1.90;;
18947;SDS011;9607;51.600;7.558;2022-10-16T06:18:06;2.97;;;1.50;;
18947;SDS011;9607;51.600;7.558;2022-10-16T06:20:33;1.83;;;1.73;;
18947;SDS011;9607;51.600;7.558;2022-10-16T06:23:00;1.60;;;1.50;;
18947;SDS011;9607;51.600;7.558;2022-10-16T06:25:29;1.70;;;1.60;;
18947;SDS011;9607;51.600;7.558;2022-10-16T06:27:56;1.65;;;1.50;;
18947;SDS011;9607;51.600;7.558;2022-10-16T06:30:23;2.22;;;2.03;;
18947;SDS011;9607;51.600;7.558;2022-10-16T06:32:51;1.85;;;1.75;;
18947;SDS011;9607;51.600;7.558;2022-10-16T06:35:18;2.75;;;2.47;;
18947;SDS011;9607;51.600;7.558;2022-10-16T06:37:45;4.40;;;2.38;;
18947;SDS011;9607;51.600;7.558;2022-10-16T06:40:12;3.22;;;2.60;;
18947;SDS011;9607;51.600;7.558;2022-10-16T06:42:40;2.85;;;2.53;;
18947;SDS011;9607;51.600;7.558;2022-10-16T06:45:07;2.88;;;2.60;;
18947;SDS011;9607;51.600;7.558;2022-10-16T06:47:34;2.28;;;2.08;;
18947;SDS011;9607;51.600;7.558;2022-10-16T06:50:03;2.20;;;2.05;;
18947;SDS011;9607;51.600;7.558;2022-10-16T06:52:31;2.45;;;2.25;;
18947;SDS011;9607;51.600;7.558;2022-10-16T06:54:58;2.97;;;2.67;;
18947;SDS011;9607;51.600;7.558;2022-10-16T06:57:25;2.83;;;2.63;;
18947;SDS011;9607;51.600;7.558;2022-10-16T06:59:52;4.65;;;2.63;;
18947;SDS011;9607;51.600;7.558;2022-10-16T07:02:19;2.92;;;2.28;;
18947;SDS011;9607;51.600;7.558;2022-10-16T07:04:46;2.20;;;2.00;;
18947;SDS011;9607;51.600;7.558;2022-10-16T07:07:14;2.10;;;2.00;;
18947;SDS011;9607;51.600;7.558;2022-10-16T07:09:41;3.03;;;2.72;;
18947;SDS011;9607;51.600;7.558;2022-10-16T07:12:08;2.63;;;2.40;;
18947;SDS011;9607;51.600;7.558;2022-10-16T07:14:35;2.22;;;2.03;;
18947;SDS011;9607;51.600;7.558;2022-10-16T07:17:02;2.45;;;2.30;;
18947;SDS011;9607;51.600;7.558;2022-10-16T07:19:29;1.75;;;1.65;;
18947;SDS011;9607;51.600;7.558;2022-10-16T07:21:55;2.20;;;2.00;;
18947;SDS011;9607;51.600;7.558;2022-10-16T07:24:24;3.25;;;2.28;;
18947;SDS011;9607;51.600;7.558;2022-10-16T07:26:52;2.47;;;2.22;;
18947;SDS011;9607;51.600;7.558;2022-10-16T07:29:19;7.15;;;2.75;;
18947;SDS011;9607;51.600;7.558;2022-10-16T07:31:47;3.65;;;2.63;;
18947;SDS011;9607;51.600;7.558;2022-10-16T07:34:15;5.38;;;2.45;;
18947;SDS011;9607;51.600;7.558;2022-10-16T07:36:43;2.00;;;1.90;;
18947;SDS011;9607;51.600;7.558;2022-10-16T07:39:11;2.17;;;1.92;;
18947;SDS011;9607;51.600;7.558;2022-10-16T07:41:39;2.33;;;2.13;;
18947;SDS011;9607;51.600;7.558;2022-10-16T07:44:06;2.55;;;2.20;;
18947;SDS011;9607;51.600;7.558;2022-10-16T07:46:33;2.90;;;1.80;;
18947;SDS011;9607;51.600;7.558;2022-10-16T07:49:01;2.00;;;1.90;;
18947;SDS011;9607;51.600;7.558;2022-10-16T07:51:28;2.00;;;1.83;;
18947;SDS011;9607;51.600;7.558;2022-10-16T07:53:55;3.05;;;2.13;;
18947;SDS011;9607;51.600;7.558;2022-10-16T07:56:22;2.47;;;2.05;;
18947;SDS011;9607;51.600;7.558;2022-10-16T07:58:51;3.20;;;2.22;;
18947;SDS011;9607;51.600;7.558;2022-10-16T08:01:19;2.38;;;2.17;;
18947;SDS011;9607;51.600;7.558;2022-10-16T08:03:46;2.20;;;2.00;;
18947;SDS011;9607;51.600;7.558;2022-10-16T08:06:15;1.75;;;1.65;;
18947;SDS011;9607;51.600;7.558;2022-10-16T08:08:42;2.35;;;2.00;;
18947;SDS011;9607;51.600;7.558;2022-10-16T08:11:09;3.10;;;2.20;;
18947;SDS011;9607;51.600;7.558;2022-10-16T08:13:36;4.03;;;2.53;;
18947;SDS011;9607;51.600;7.558;2022-10-16T08:16:04;4.00;;;2.13;;
18947;SDS011;9607;51.600;7.558;2022-10-16T08:18:33;3.42;;;1.90;;
18947;SDS011;9607;51.600;7.558;2022-10-16T08:21:01;2.13;;;1.88;;
18947;SDS011;9607;51.600;7.558;2022-10-16T08:23:29;3.67;;;2.20;;
18947;SDS011;9607;51.600;7.558;2022-10-16T08:26:01;2.30;;;2.10;;
18947;SDS011;9607;51.600;7.558;2022-10-16T08:28:30;4.15;;;2.05;;
18947;SDS011;9607;51.600;7.558;2022-10-16T08:31:06;2.92;;;2.10;;
18947;SDS011;9607;51.600;7.558;2022-10-16T08:33:35;2.83;;;2.05;;
18947;SDS011;9607;51.600;7.558;2022-10-16T08:36:02;2.28;;;1.80;;
18947;SDS011;9607;51.600;7.558;2022-10-16T08:38:29;4.18;;;2.53;;
18947;SDS011;9607;51.600;7.558;2022-10-16T08:40:57;2.38;;;1.70;;
18947;SDS011;9607;51.600;7.558;2022-10-16T08:43:43;1.92;;;1.83;;
18947;SDS011;9607;51.600;7.558;2022-10-16T08:49:11;2.33;;;1.70;;
18947;SDS011;9607;51.600;7.558;2022-10-16T08:51:39;4.05;;;1.85;;
18947;SDS011;9607;51.600;7.558;2022-10-16T08:54:11;2.40;;;1.50;;
18947;SDS011;9607;51.600;7.558;2022-10-16T08:56:49;3.58;;;1.70;;
18947;SDS011;9607;51.600;7.558;2022-10-16T08:59:16;2.05;;;1.65;;
18947;SDS011;9607;51.600;7.558;2022-10-16T09:01:45;6.00;;;1.77;;
18947;SDS011;9607;51.600;7.558;2022-10-16T09:07:29;4.13;;;1.40;;
18947;SDS011;9607;51.600;7.558;2022-10-16T09:10:07;1.85;;;1.23;;
18947;SDS011;9607;51.600;7.558;2022-10-16T09:12:43;4.10;;;1.58;;
18947;SDS011;9607;51.600;7.558;2022-10-16T09:15:17;2.22;;;1.10;;
18947;SDS011;9607;51.600;7.558;2022-10-16T09:17:54;3.10;;;1.05;;
18947;SDS011;9607;51.600;7.558;2022-10-16T09:20:29;3.85;;;0.95;;
18947;SDS011;9607;51.600;7.558;2022-10-16T09:23:08;5.03;;;1.00;;
18947;SDS011;9607;51.600;7.558;2022-10-16T09:25:40;4.10;;;1.20;;
18947;SDS011;9607;51.600;7.558;2022-10-16T09:28:09;2.85;;;1.00;;
18947;SDS011;9607;51.600;7.558;2022-10-16T09:30:36;5.28;;;1.17;;
18947;SDS011;9607;51.600;7.558;2022-10-16T09:33:06;2.17;;;0.90;;
18947;SDS011;9607;51.600;7.558;2022-10-16T09:35:35;1.45;;;0.80;;
18947;SDS011;9607;51.600;7.558;2022-10-16T09:38:05;1.30;;;0.60;;
18947;SDS011;9607;51.600;7.558;2022-10-16T09:40:33;2.65;;;1.30;;
18947;SDS011;9607;51.600;7.558;2022-10-16T09:43:03;3.25;;;1.05;;
18947;SDS011;9607;51.600;7.558;2022-10-16T09:45:42;2.28;;;1.02;;
18947;SDS011;9607;51.600;7.558;2022-10-16T09:48:22;7.85;;;1.17;;
18947;SDS011;9607;51.600;7.558;2022-10-16T09:50:56;4.28;;;1.08;;
18947;SDS011;9607;51.600;7.558;2022-10-16T09:53:24;2.83;;;0.75;;
18947;SDS011;9607;51.600;7.558;2022-10-16T09:56:04;2.47;;;0.85;;
18947;SDS011;9607;51.600;7.558;2022-10-16T09:58:31;3.25;;;1.02;;
18947;SDS011;9607;51.600;7.558;2022-10-16T10:00:59;3.50;;;1.10;;
18947;SDS011;9607;51.600;7.558;2022-10-16T10:03:32;2.20;;;0.85;;
18947;SDS011;9607;51.600;7.558;2022-10-16T10:06:04;1.42;;;0.80;;
18947;SDS011;9607;51.600;7.558;2022-10-16T10:08:41;2.25;;;0.85;;
18947;SDS011;9607;51.600;7.558;2022-10-16T10:11:18;3.03;;;0.82;;
18947;SDS011;9607;51.600;7.558;2022-10-16T10:14:03;2.83;;;1.05;;
18947;SDS011;9607;51.600;7.558;2022-10-16T10:16:31;2.25;;;0.75;;
18947;SDS011;9607;51.600;7.558;2022-10-16T10:19:00;2.03;;;0.70;;
18947;SDS011;9607;51.600;7.558;2022-10-16T10:21:27;2.75;;;0.85;;
18947;SDS011;9607;51.600;7.558;2022-10-16T10:23:56;1.88;;;0.55;;
18947;SDS011;9607;51.600;7.558;2022-10-16T10:26:25;2.60;;;0.85;;
18947;SDS011;9607;51.600;7.558;2022-10-16T10:28:55;2.35;;;0.90;;
18947;SDS011;9607;51.600;7.558;2022-10-16T10:31:30;2.15;;;0.90;;
18947;SDS011;9607;51.600;7.558;2022-10-16T10:34:09;4.68;;;1.05;;
18947;SDS011;9607;51.600;7.558;2022-10-16T10:36:49;4.82;;;0.80;;
18947;SDS011;9607;51.600;7.558;2022-10-16T10:39:25;2.88;;;1.23;;
18947;SDS011;9607;51.600;7.558;2022-10-16T10:42:14;1.67;;;0.75;;
18947;SDS011;9607;51.600;7.558;2022-10-16T10:44:54;5.03;;;1.00;;
18947;SDS011;9607;51.600;7.558;2022-10-16T10:47:40;5.35;;;1.27;;
18947;SDS011;9607;51.600;7.558;2022-10-16T10:50:18;3.85;;;0.90;;
18947;SDS011;9607;51.600;7.558;2022-10-16T10:52:53;4.68;;;1.13;;
18947;SDS011;9607;51.600;7.558;2022-10-16T10:55:31;3.42;;;0.80;;
18947;SDS011;9607;51.600;7.558;2022-10-16T10:58:15;2.65;;;0.80;;
18947;SDS011;9607;51.600;7.558;2022-10-16T11:01:01;2.08;;;1.00;;
18947;SDS011;9607;51.600;7.558;2022-10-16T11:03:41;2.85;;;0.93;;
18947;SDS011;9607;51.600;7.558;2022-10-16T11:06:21;5.35;;;1.38;;
18947;SDS011;9607;51.600;7.558;2022-10-16T11:08:53;1.50;;;0.90;;
18947;SDS011;9607;51.600;7.558;2022-10-16T11:11:25;1.83;;;0.90;;
18947;SDS011;9607;51.600;7.558;2022-10-16T11:13:58;3.33;;;0.80;;
18947;SDS011;9607;51.600;7.558;2022-10-16T11:16:31;1.40;;;0.60;;
18947;SDS011;9607;51.600;7.558;2022-10-16T11:19:03;2.95;;;0.70;;
18947;SDS011;9607;51.600;7.558;2022-10-16T11:21:41;1.08;;;0.70;;
18947;SDS011;9607;51.600;7.558;2022-10-16T11:24:16;1.75;;;0.60;;
18947;SDS011;9607;51.600;7.558;2022-10-16T11:26:48;3.10;;;0.70;;
18947;SDS011;9607;51.600;7.558;2022-10-16T11:29:19;2.25;;;0.70;;
18947;SDS011;9607;51.600;7.558;2022-10-16T11:31:52;4.25;;;0.85;;
18947;SDS011;9607;51.600;7.558;2022-10-16T11:34:24;3.70;;;1.02;;
18947;SDS011;9607;51.600;7.558;2022-10-16T11:36:58;2.85;;;0.80;;
18947;SDS011;9607;51.600;7.558;2022-10-16T11:39:30;1.98;;;0.70;;
18947;SDS011;9607;51.600;7.558;2022-10-16T11:41:59;1.50;;;0.60;;
18947;SDS011;9607;51.600;7.558;2022-10-16T11:44:35;5.13;;;0.80;;
18947;SDS011;9607;51.600;7.558;2022-10-16T11:47:12;2.15;;;0.70;;
18947;SDS011;9607;51.600;7.558;2022-10-16T11:49:51;2.30;;;0.52;;
18947;SDS011;9607;51.600;7.558;2022-10-16T11:52:27;2.53;;;0.90;;
18947;SDS011;9607;51.600;7.558;2022-10-16T11:54:59;4.38;;;1.00;;
18947;SDS011;9607;51.600;7.558;2022-10-16T11:57:31;2.00;;;0.88;;
18947;SDS011;9607;51.600;7.558;2022-10-16T12:00:02;2.80;;;0.60;;
18947;SDS011;9607;51.600;7.558;2022-10-16T12:02:44;1.75;;;0.90;;
18947;SDS011;9607;51.600;7.558;2022-10-16T12:05:22;1.17;;;0.43;;
18947;SDS011;9607;51.600;7.558;2022-10-16T12:08:04;1.85;;;0.73;;
18947;SDS011;9607;51.600;7.558;2022-10-16T12:10:36;3.38;;;0.52;;
18947;SDS011;9607;51.600;7.558;2022-10-16T12:13:04;2.13;;;0.70;;
18947;SDS011;9607;51.600;7.558;2022-10-16T12:15:32;2.80;;;0.55;;
18947;SDS011;9607;51.600;7.558;2022-10-16T12:18:00;1.23;;;0.60;;
18947;SDS011;9607;51.600;7.558;2022-10-16T12:20:28;0.82;;;0.55;;
18947;SDS011;9607;51.600;7.558;2022-10-16T12:22:58;2.13;;;0.80;;
18947;SDS011;9607;51.600;7.558;2022-10-16T12:25:29;1.75;;;1.05;;
18947;SDS011;9607;51.600;7.558;2022-10-16T12:28:01;1.60;;;0.63;;
18947;SDS011;9607;51.600;7.558;2022-10-16T12:30:30;1.52;;;0.70;;
18947;SDS011;9607;51.600;7.558;2022-10-16T12:32:59;1.83;;;0.70;;
18947;SDS011;9607;51.600;7.558;2022-10-16T12:35:30;1.17;;;0.60;;
18947;SDS011;9607;51.600;7.558;2022-10-16T12:38:15;4.00;;;0.63;;
18947;SDS011;9607;51.600;7.558;2022-10-16T12:40:44;2.50;;;0.80;;
18947;SDS011;9607;51.600;7.558;2022-10-16T12:43:27;2.10;;;0.80;;
18947;SDS011;9607;51.600;7.558;2022-10-16T12:46:02;0.57;;;0.50;;
18947;SDS011;9607;51.600;7.558;2022-10-16T12:48:44;1.00;;;0.50;;
18947;SDS011;9607;51.600;7.558;2022-10-16T12:51:21;1.75;;;0.57;;
18947;SDS011;9607;51.600;7.558;2022-10-16T12:53:57;1.27;;;0.50;;
18947;SDS011;9607;51.600;7.558;2022-10-16T12:56:27;3.20;;;0.77;;
18947;SDS011;9607;51.600;7.558;2022-10-16T12:59:07;2.08;;;0.60;;
18947;SDS011;9607;51.600;7.558;2022-10-16T13:01:48;1.33;;;0.60;;
18947;SDS011;9607;51.600;7.558;2022-10-16T13:04:30;2.58;;;0.60;;
18947;SDS011;9607;51.600;7.558;2022-10-16T13:07:09;0.88;;;0.40;;
18947;SDS011;9607;51.600;7.558;2022-10-16T13:09:49;1.73;;;0.90;;
18947;SDS011;9607;51.600;7.558;2022-10-16T13:12:29;2.03;;;0.70;;
18947;SDS011;9607;51.600;7.558;2022-10-16T13:18:04;1.38;;;0.63;;
18947;SDS011;9607;51.600;7.558;2022-10-16T13:20:42;1.95;;;0.60;;
18947;SDS011;9607;51.600;7.558;2022-10-16T13:23:21;0.70;;;0.40;;
18947;SDS011;9607;51.600;7.558;2022-10-16T13:25:58;2.28;;;0.60;;
18947;SDS011;9607;51.600;7.558;2022-10-16T13:31:12;0.98;;;0.50;;
18947;SDS011;9607;51.600;7.558;2022-10-16T13:33:43;0.80;;;0.30;;
18947;SDS011;9607;51.600;7.558;2022-10-16T13:36:19;2.30;;;0.52;;
18947;SDS011;9607;51.600;7.558;2022-10-16T13:38:47;2.83;;;0.60;;
18947;SDS011;9607;51.600;7.558;2022-10-16T13:41:16;1.30;;;0.50;;
18947;SDS011;9607;51.600;7.558;2022-10-16T13:43:45;2.28;;;0.40;;
18947;SDS011;9607;51.600;7.558;2022-10-16T13:46:17;0.93;;;0.52;;
18947;SDS011;9607;51.600;7.558;2022-10-16T13:51:20;1.38;;;0.73;;
18947;SDS011;9607;51.600;7.558;2022-10-16T13:56:22;0.77;;;0.50;;
18947;SDS011;9607;51.600;7.558;2022-10-16T13:58:58;1.17;;;0.60;;
18947;SDS011;9607;51.600;7.558;2022-10-16T14:01:28;2.75;;;0.60;;
18947;SDS011;9607;51.600;7.558;2022-10-16T14:04:01;1.75;;;0.60;;
18947;SDS011;9607;51.600;7.558;2022-10-16T14:06:31;1.00;;;0.73;;
18947;SDS011;9607;51.600;7.558;2022-10-16T14:08:59;1.08;;;0.40;;
18947;SDS011;9607;51.600;7.558;2022-10-16T14:11:31;1.38;;;0.47;;
18947;SDS011;9607;51.600;7.558;2022-10-16T14:13:59;0.75;;;0.35;;
18947;SDS011;9607;51.600;7.558;2022-10-16T14:16:29;0.80;;;0.45;;
18947;SDS011;9607;51.600;7.558;2022-10-16T14:18:58;2.25;;;0.55;;
18947;SDS011;9607;51.600;7.558;2022-10-16T14:21:27;2.50;;;0.52;;
18947;SDS011;9607;51.600;7.558;2022-10-16T14:23:54;0.77;;;0.50;;
18947;SDS011;9607;51.600;7.558;2022-10-16T14:26:22;1.95;;;0.52;;
18947;SDS011;9607;51.600;7.558;2022-10-16T14:29:01;1.08;;;0.65;;
18947;SDS011;9607;51.600;7.558;2022-10-16T14:31:38;1.92;;;0.80;;
18947;SDS011;9607;51.600;7.558;2022-10-16T14:36:50;1.15;;;0.73;;
18947;SDS011;9607;51.600;7.558;2022-10-16T14:39:17;2.08;;;0.70;;
18947;SDS011;9607;51.600;7.558;2022-10-16T14:41:47;1.25;;;0.50;;
18947;SDS011;9607;51.600;7.558;2022-10-16T14:44:16;1.70;;;0.50;;
18947;SDS011;9607;51.600;7.558;2022-10-16T14:46:46;1.05;;;0.50;;
18947;SDS011;9607;51.600;7.558;2022-10-16T14:49:15;1.42;;;0.50;;
18947;SDS011;9607;51.600;7.558;2022-10-16T14:51:44;0.73;;;0.45;;
18947;SDS011;9607;51.600;7.558;2022-10-16T14:54:13;1.75;;;0.93;;
18947;SDS011;9607;51.600;7.558;2022-10-16T14:56:43;2.05;;;0.40;;
18947;SDS011;9607;51.600;7.558;2022-10-16T14:59:14;0.82;;;0.40;;
18947;SDS011;9607;51.600;7.558;2022-10-16T15:01:43;0.32;;;0.32;;
18947;SDS011;9607;51.600;7.558;2022-10-16T15:04:12;1.15;;;0.52;;
18947;SDS011;9607;51.600;7.558;2022-10-16T15:06:40;0.60;;;0.50;;
18947;SDS011;9607;51.600;7.558;2022-10-16T15:09:07;0.30;;;0.30;;
18947;SDS011;9607;51.600;7.558;2022-10-16T15:11:34;0.88;;;0.60;;
18947;SDS011;9607;51.600;7.558;2022-10-16T15:14:01;0.65;;;0.40;;
18947;SDS011;9607;51.600;7.558;2022-10-16T15:16:29;0.80;;;0.38;;
18947;SDS011;9607;51.600;7.558;2022-10-16T15:18:58;0.30;;;0.30;;
18947;SDS011;9607;51.600;7.558;2022-10-16T15:21:26;1.95;;;0.90;;
18947;SDS011;9607;51.600;7.558;2022-10-16T15:23:54;0.85;;;0.45;;
18947;SDS011;9607;51.600;7.558;2022-10-16T15:26:22;0.65;;;0.40;;
18947;SDS011;9607;51.600;7.558;2022-10-16T15:28:50;0.45;;;0.40;;
18947;SDS011;9607;51.600;7.558;2022-10-16T15:31:16;0.40;;;0.40;;
18947;SDS011;9607;51.600;7.558;2022-10-16T15:33:43;0.43;;;0.40;;
18947;SDS011;9607;51.600;7.558;2022-10-16T15:36:17;0.20;;;0.20;;
18947;SDS011;9607;51.600;7.558;2022-10-16T15:38:50;1.70;;;0.60;;
18947;SDS011;9607;51.600;7.558;2022-10-16T15:41:18;0.70;;;0.50;;